RIPO2: Cimarron River Near Ripley, OK

Data processed at Sun Sep 23 2018 22:02


All information presented herein is the property of the government of the United States of America and may be revised or deleted at any time without prior notice.
Dissemination of this information without the expressed written consent of the Public Affairs Office, Tulsa District U.S. Army Corps of Engineers is strictly prohibited.
These data are gathered electronically and, as presented, have not undergone any form of quality control. These data are not guaranteed to be valid or correct.
Go to home page.
Go to station list.
Go to home page.

Upstream stations:

Downstream station:
Previous Day
Next Day
Current Day
    
SHEF ID:       RIPO2     Cimarron River near Ripley, OK
STATION TYPE:  

               PRECIP     STAGE  RIV-FLOW  BAT-LOAD
                   in        ft       cfs      volt
              Ccp-Rev   Ccp-Rev   Ccp-Rev   Ccp-Rev
(US/Central)
09/23 00:00      0.00      8.85       590     12.65
09/23 01:00      0.00      8.87       603     12.57
09/23 02:00      0.00      8.94       650     12.57
09/23 03:00      0.00      9.16       811     12.57
09/23 04:00      0.00      9.60      1204     12.57
09/23 05:00      0.00     10.08      1707     12.57
09/23 06:00      0.00     10.45      2131     12.57
09/23 07:00      0.00     10.72      2481     12.57
09/23 08:00      0.00     10.90      2730     12.49
09/23 09:00      0.00     11.02      2906     12.49
09/23 10:00      0.00     11.11      3042     12.73
09/23 11:00      0.00     11.13      3072     13.05
09/23 12:00      0.00     11.20      3182     13.44
09/23 13:00      0.00     11.22      3213     13.60
09/23 14:00      0.00     11.23      3229     13.53
09/23 15:00      0.00     11.24      3245     13.44
09/23 16:00      0.00     11.23      3229     13.44
09/23 17:00      0.00     11.24      3245     13.44
09/23 18:00      0.00     11.24      3245     13.44
09/23 19:00      0.00     11.26      3277     13.44
09/23 20:00      0.00     11.29      3326     13.13
09/23 21:00      0.00     11.33      3391     12.73
09/23 22:00      0.00     11.39      3491     12.57
09/23 23:00      ----      ----      ----      ----